createdAt,value
2023-01-23T02:02:30.532Z,1.20
2023-01-23T02:05:02.333Z,1.20
2023-01-23T02:07:36.065Z,1.20
2023-01-23T02:10:06.514Z,1.20
2023-01-23T02:12:36.199Z,1.20
2023-01-23T02:15:05.101Z,1.20
2023-01-23T02:17:36.667Z,1.20
2023-01-23T02:20:12.265Z,1.20
2023-01-23T02:22:50.112Z,1.20
2023-01-23T02:25:28.074Z,1.20
2023-01-23T02:27:57.543Z,1.20
2023-01-23T02:30:26.163Z,1.20
2023-01-23T02:32:55.743Z,1.20
2023-01-23T02:35:28.006Z,1.10
2023-01-23T02:38:04.240Z,1.10
2023-01-23T02:40:33.881Z,1.10
2023-01-23T02:43:05.680Z,1.20
2023-01-23T02:45:39.890Z,1.20
2023-01-23T02:48:09.766Z,1.20
2023-01-23T02:50:38.494Z,1.20
2023-01-23T02:53:07.095Z,1.20
2023-01-23T02:55:37.449Z,1.20
2023-01-23T02:58:20.706Z,1.20
2023-01-23T03:00:49.495Z,1.20
2023-01-23T03:03:17.560Z,1.30
2023-01-23T03:05:47.822Z,1.20
2023-01-23T03:08:15.819Z,1.20
2023-01-23T03:10:44.264Z,1.20
2023-01-23T03:13:13.611Z,1.20
2023-01-23T03:15:42.217Z,1.20
2023-01-23T03:18:10.459Z,1.10
2023-01-23T03:20:40.644Z,1.20
2023-01-23T03:23:09.313Z,1.20
2023-01-23T03:25:37.250Z,1.20
2023-01-23T03:28:25.958Z,1.20
2023-01-23T03:30:54.415Z,1.20
2023-01-23T03:33:22.529Z,1.20
2023-01-23T03:35:51.475Z,1.20
2023-01-23T03:38:19.775Z,1.20
2023-01-23T03:41:08.552Z,1.20
2023-01-23T03:43:37.085Z,1.20
2023-01-23T03:46:08.021Z,1.70
2023-01-23T03:48:36.913Z,1.20
2023-01-23T03:51:05.671Z,1.20
2023-01-23T03:53:33.899Z,1.20
2023-01-23T03:56:03.134Z,1.10
2023-01-23T03:58:31.417Z,1.10
2023-01-23T04:01:03.153Z,1.10
2023-01-23T04:03:35.770Z,1.10
2023-01-23T04:06:05.049Z,1.10
2023-01-23T04:08:33.459Z,1.10
2023-01-23T04:11:03.895Z,1.20
2023-01-23T04:13:32.523Z,1.20
2023-01-23T04:16:04.112Z,1.20
2023-01-23T04:18:32.521Z,1.20
2023-01-23T04:21:02.160Z,1.20
2023-01-23T04:23:31.248Z,1.20
2023-01-23T04:25:59.289Z,1.10
2023-01-23T04:28:28.152Z,1.10
2023-01-23T04:30:56.829Z,1.10
2023-01-23T04:33:30.793Z,1.10
2023-01-23T04:36:03.116Z,1.10
2023-01-23T04:38:32.300Z,1.10
2023-01-23T04:41:19.103Z,1.10
2023-01-23T04:43:47.704Z,1.10
2023-01-23T04:46:16.838Z,1.10
2023-01-23T04:48:58.384Z,1.10
2023-01-23T04:51:28.816Z,1.10
2023-01-23T04:53:57.191Z,1.10
2023-01-23T04:56:25.206Z,1.10
2023-01-23T04:58:53.726Z,1.20
2023-01-23T05:01:24.088Z,1.10
2023-01-23T05:03:58.068Z,1.10
2023-01-23T05:06:26.369Z,1.10
2023-01-23T05:08:58.272Z,1.10
2023-01-23T05:11:37.587Z,1.10
2023-01-23T05:14:06.737Z,1.10
2023-01-23T05:16:37.883Z,1.10
2023-01-23T05:19:18.272Z,1.10
2023-01-23T05:21:46.819Z,1.10
2023-01-23T05:24:25.810Z,1.10
2023-01-23T05:26:55.944Z,1.10
2023-01-23T05:29:25.740Z,1.70
2023-01-23T05:32:03.915Z,1.10
2023-01-23T05:34:37.855Z,1.20
2023-01-23T05:37:14.034Z,1.30
2023-01-23T05:39:47.227Z,1.40
2023-01-23T05:42:16.516Z,1.40
2023-01-23T05:44:56.734Z,1.40
2023-01-23T05:47:30.625Z,1.40
2023-01-23T05:49:59.160Z,1.40
2023-01-23T05:52:33.884Z,1.40
2023-01-23T05:55:03.554Z,1.40
2023-01-23T05:57:34.460Z,1.40
2023-01-23T06:00:25.485Z,1.40
2023-01-23T06:03:16.630Z,1.40
2023-01-23T06:06:02.965Z,1.30
2023-01-23T06:08:31.197Z,1.30
2023-01-23T06:11:01.177Z,1.30
2023-01-23T06:13:30.154Z,1.30
2023-01-23T06:15:58.831Z,1.30
2023-01-23T06:18:27.717Z,1.30
2023-01-23T06:20:59.634Z,1.30
2023-01-23T06:23:28.094Z,1.30
2023-01-23T06:26:02.838Z,1.20
2023-01-23T06:28:31.827Z,1.20
2023-01-23T06:31:03.904Z,1.20
2023-01-23T06:33:40.097Z,1.20
2023-01-23T06:36:12.151Z,1.20
2023-01-23T06:38:40.239Z,1.20
2023-01-23T06:41:12.955Z,1.20
2023-01-23T06:43:46.961Z,1.20
2023-01-23T06:46:20.048Z,1.20
2023-01-23T06:48:48.114Z,1.20
2023-01-23T06:51:16.459Z,1.20
2023-01-23T06:53:46.133Z,1.20
2023-01-23T06:56:15.696Z,1.20
2023-01-23T06:58:46.818Z,1.20
2023-01-23T07:01:31.542Z,1.20
2023-01-23T07:04:18.230Z,1.20
2023-01-23T07:06:48.713Z,1.20
2023-01-23T07:09:19.093Z,1.20
2023-01-23T07:11:56.638Z,1.20
2023-01-23T07:14:27.067Z,1.50
2023-01-23T07:16:55.642Z,1.20
2023-01-23T07:19:23.717Z,1.30
2023-01-23T07:21:52.261Z,1.30
2023-01-23T07:24:20.367Z,1.30
2023-01-23T07:26:48.441Z,1.30
2023-01-23T07:29:17.822Z,1.30
2023-01-23T07:31:45.876Z,1.30
2023-01-23T07:34:13.903Z,1.30
2023-01-23T07:36:41.929Z,1.30
2023-01-23T07:39:10.326Z,1.30
2023-01-23T07:41:38.853Z,1.30
2023-01-23T07:44:09.361Z,1.30
2023-01-23T07:46:38.632Z,1.30
2023-01-23T07:49:06.663Z,1.30
2023-01-23T07:51:35.828Z,1.30
2023-01-23T07:54:03.914Z,1.30
2023-01-23T07:56:32.623Z,1.30
2023-01-23T07:59:00.658Z,1.30
2023-01-23T08:01:29.185Z,1.40
2023-01-23T08:03:58.696Z,1.40
2023-01-23T08:06:26.748Z,1.40
2023-01-23T08:08:54.761Z,1.40
2023-01-23T08:11:23.916Z,1.40
2023-01-23T08:13:52.372Z,1.40
2023-01-23T08:16:20.509Z,1.40
2023-01-23T08:18:48.698Z,1.50
2023-01-23T08:21:18.478Z,1.50
2023-01-23T08:23:46.922Z,1.50
2023-01-23T08:26:17.233Z,1.50
2023-01-23T08:28:46.169Z,1.60
2023-01-23T08:31:14.640Z,1.60
2023-01-23T08:33:42.680Z,1.80
2023-01-23T08:36:12.641Z,1.60
2023-01-23T08:38:42.034Z,1.70
2023-01-23T08:41:11.730Z,1.60
2023-01-23T08:43:41.374Z,1.70
2023-01-23T08:46:10.399Z,1.70
2023-01-23T08:48:38.757Z,1.80
2023-01-23T08:51:08.660Z,1.90
2023-01-23T08:53:37.306Z,1.90
2023-01-23T08:56:08.870Z,1.90
2023-01-23T08:58:36.859Z,1.80
2023-01-23T09:01:04.902Z,1.70
2023-01-23T09:03:33.087Z,1.70
2023-01-23T09:06:02.844Z,1.80
2023-01-23T09:08:31.091Z,1.60
2023-01-23T09:11:01.599Z,1.60
2023-01-23T09:13:31.667Z,2.20
2023-01-23T09:16:00.167Z,1.70
2023-01-23T09:18:28.395Z,1.70
2023-01-23T09:20:56.654Z,1.80
2023-01-23T09:23:25.385Z,1.90
2023-01-23T09:25:53.596Z,2.00
2023-01-23T09:28:21.618Z,2.00
2023-01-23T09:30:51.240Z,2.10
2023-01-23T09:33:24.779Z,2.20
2023-01-23T09:35:53.185Z,2.30
2023-01-23T09:38:21.211Z,2.30
2023-01-23T09:40:51.765Z,2.30
2023-01-23T09:43:25.732Z,2.30
2023-01-23T09:46:02.905Z,2.40
2023-01-23T09:48:39.920Z,2.40
2023-01-23T09:51:17.096Z,2.40
2023-01-23T09:53:45.328Z,2.40
2023-01-23T09:56:24.194Z,2.30
2023-01-23T09:59:01.219Z,2.30
2023-01-23T10:01:32.761Z,2.30
2023-01-23T10:04:02.018Z,2.30
2023-01-23T10:06:32.616Z,2.30
2023-01-23T10:09:21.214Z,2.30
2023-01-23T10:12:03.285Z,2.30
2023-01-23T10:14:48.308Z,2.30
2023-01-23T10:17:28.723Z,2.40
2023-01-23T10:20:15.457Z,2.40
2023-01-23T10:22:48.388Z,2.40
2023-01-23T10:25:21.382Z,2.50
2023-01-23T10:27:52.076Z,2.60
2023-01-23T10:30:27.208Z,2.60
2023-01-23T10:33:01.923Z,2.60
2023-01-23T10:35:37.937Z,2.60
2023-01-23T10:38:25.755Z,2.60
2023-01-23T10:41:11.469Z,2.60
2023-01-23T10:43:40.666Z,2.60
2023-01-23T10:46:14.007Z,2.60
2023-01-23T10:48:47.123Z,2.60
2023-01-23T10:51:33.265Z,2.60
2023-01-23T10:54:30.900Z,2.50
2023-01-23T10:57:01.671Z,2.50
2023-01-23T10:59:36.406Z,2.50
2023-01-23T11:02:21.929Z,3.00
2023-01-23T11:04:52.719Z,2.60
2023-01-23T11:07:22.435Z,2.60
2023-01-23T11:09:56.408Z,2.60
2023-01-23T11:12:25.871Z,2.60
2023-01-23T11:15:14.167Z,2.50
2023-01-23T11:17:44.084Z,2.50
2023-01-23T11:20:24.640Z,2.50
2023-01-23T11:23:03.879Z,2.60
2023-01-23T11:25:34.598Z,2.60
2023-01-23T11:28:05.083Z,2.80
2023-01-23T11:30:42.270Z,2.80
2023-01-23T11:33:18.178Z,2.90
2023-01-23T11:35:56.811Z,3.00
2023-01-23T11:38:31.357Z,3.00
2023-01-23T11:40:59.599Z,3.00
2023-01-23T11:43:27.622Z,3.00
2023-01-23T11:46:15.317Z,3.00
2023-01-23T11:48:57.483Z,2.90
2023-01-23T11:51:36.739Z,2.80
2023-01-23T11:54:18.530Z,2.80
2023-01-23T11:57:00.272Z,2.70
2023-01-23T11:59:53.803Z,2.80
2023-01-23T12:02:55.467Z,2.70
2023-01-23T12:05:35.395Z,2.80
2023-01-23T12:08:19.248Z,2.70
2023-01-23T12:10:57.535Z,2.90
2023-01-23T12:13:54.370Z,2.90
2023-01-23T12:16:29.732Z,2.90
2023-01-23T12:19:10.034Z,3.50
2023-01-23T12:21:43.912Z,3.00
2023-01-23T12:24:23.517Z,3.00
2023-01-23T12:27:02.684Z,3.00
2023-01-23T12:29:50.586Z,2.90
2023-01-23T12:32:35.870Z,2.80
2023-01-23T12:35:21.336Z,2.70
2023-01-23T12:38:06.564Z,2.60
2023-01-23T12:40:40.499Z,2.60
2023-01-23T12:43:15.401Z,2.60
2023-01-23T12:45:49.097Z,2.50
2023-01-23T12:48:20.521Z,2.50
2023-01-23T12:50:52.213Z,2.50
2023-01-23T12:53:23.969Z,2.40
2023-01-23T12:56:00.221Z,2.50
2023-01-23T12:58:31.902Z,2.50
2023-01-23T13:01:16.588Z,2.40
2023-01-23T13:03:58.646Z,2.40
2023-01-23T13:06:46.168Z,2.40
2023-01-23T13:09:23.080Z,2.40
2023-01-23T13:12:03.931Z,2.40
2023-01-23T13:17:39.916Z,2.50
2023-01-23T13:20:40.142Z,2.50
2023-01-23T13:23:24.181Z,2.50
2023-01-23T13:26:28.861Z,2.50
2023-01-23T13:29:02.186Z,2.60
2023-01-23T13:31:42.186Z,2.60
2023-01-23T13:34:41.692Z,2.70
2023-01-23T13:37:51.030Z,2.70
2023-01-23T13:40:22.085Z,2.70
2023-01-23T13:42:50.284Z,2.70
2023-01-23T13:45:31.143Z,2.70
2023-01-23T14:21:52.440Z,2.70
2023-01-23T14:24:23.305Z,2.70
2023-01-23T14:26:53.319Z,2.70
2023-01-23T14:29:22.975Z,2.70
2023-01-23T14:31:52.055Z,2.70
2023-01-23T14:34:23.724Z,2.70
2023-01-23T14:36:54.110Z,2.60
2023-01-23T14:39:24.089Z,2.60
2023-01-23T14:41:54.764Z,2.60
2023-01-23T14:44:26.352Z,2.60
2023-01-23T14:46:56.640Z,2.60
2023-01-23T14:49:29.489Z,2.60
2023-01-23T14:51:59.601Z,2.60
2023-01-23T14:54:32.967Z,2.50
2023-01-23T14:57:05.532Z,2.50
2023-01-23T14:59:37.042Z,2.50
2023-01-23T15:02:26.560Z,2.50
2023-01-23T15:05:23.514Z,2.50
2023-01-23T15:07:55.013Z,2.50
2023-01-23T15:10:25.785Z,2.50
2023-01-23T15:12:57.030Z,2.40
2023-01-23T15:15:26.815Z,2.40
2023-01-23T15:17:55.974Z,2.40
2023-01-23T15:20:36.329Z,2.40
2023-01-23T15:23:37.100Z,2.40
2023-01-23T15:26:24.796Z,2.30
2023-01-23T15:28:54.747Z,2.30
2023-01-23T15:31:26.640Z,2.30
2023-01-23T15:33:56.275Z,2.30
2023-01-23T15:36:31.034Z,2.30
2023-01-23T15:39:00.394Z,2.30
2023-01-23T15:41:40.661Z,2.20
2023-01-23T15:44:16.353Z,2.20
2023-01-23T15:46:44.454Z,2.20
2023-01-23T15:49:24.284Z,2.20
2023-01-23T15:51:56.355Z,2.20
2023-01-23T15:54:28.952Z,2.20
2023-01-23T15:57:07.172Z,2.20
2023-01-23T15:59:36.782Z,2.20
2023-01-23T16:02:05.493Z,2.20
2023-01-23T16:04:33.834Z,2.20
2023-01-23T16:07:07.666Z,2.20
2023-01-23T16:09:39.103Z,2.20
2023-01-23T16:12:13.815Z,2.20
2023-01-23T16:14:41.905Z,2.10
2023-01-23T16:17:16.742Z,2.10
2023-01-23T16:19:45.117Z,2.10
2023-01-23T16:22:18.962Z,2.10
2023-01-23T16:24:47.218Z,2.10
2023-01-23T16:27:20.878Z,2.10
2023-01-23T16:29:50.140Z,2.10
2023-01-23T16:32:18.400Z,2.10
2023-01-23T16:34:46.729Z,2.00
2023-01-23T16:37:18.954Z,2.10
2023-01-23T16:39:48.517Z,2.00
2023-01-23T16:42:21.107Z,2.10
2023-01-23T16:44:49.133Z,2.00
2023-01-23T16:47:17.399Z,2.00
2023-01-23T16:49:54.151Z,2.00
2023-01-23T16:52:26.018Z,2.10
2023-01-23T16:54:55.530Z,2.00
2023-01-23T16:57:24.745Z,2.00
2023-01-23T16:59:56.163Z,2.00
2023-01-23T17:02:29.048Z,2.00
2023-01-23T17:04:57.131Z,2.00
2023-01-23T17:07:26.568Z,1.90
2023-01-23T17:09:54.596Z,1.80
2023-01-23T17:12:27.630Z,1.80
2023-01-23T17:14:57.003Z,1.70
2023-01-23T17:17:30.377Z,1.70
2023-01-23T17:19:58.930Z,1.60
2023-01-23T17:22:31.430Z,1.60
2023-01-23T17:24:59.648Z,1.50
2023-01-23T17:27:27.910Z,1.50
2023-01-23T17:29:56.093Z,1.50
2023-01-23T17:32:30.427Z,1.50
2023-01-23T17:35:02.642Z,1.40
2023-01-23T17:37:32.827Z,1.40
2023-01-23T17:40:00.785Z,1.40
2023-01-23T17:42:28.914Z,1.30
2023-01-23T17:44:57.023Z,1.30
2023-01-23T17:47:25.637Z,1.40
2023-01-23T17:49:55.316Z,1.30
2023-01-23T17:52:24.788Z,1.30
2023-01-23T17:54:54.488Z,1.30
2023-01-23T17:57:22.639Z,1.40
2023-01-23T17:59:50.605Z,1.40
2023-01-23T18:02:26.737Z,1.40
2023-01-23T18:04:54.917Z,1.40
2023-01-23T18:07:22.933Z,1.40
2023-01-23T18:09:51.179Z,1.50
2023-01-23T18:12:29.663Z,1.50
2023-01-23T18:15:05.305Z,1.50
2023-01-23T18:17:38.322Z,1.50
2023-01-23T18:20:20.637Z,1.50
2023-01-23T18:22:49.910Z,1.50
2023-01-23T18:25:20.218Z,1.50
2023-01-23T18:27:55.249Z,1.50
2023-01-23T18:30:47.014Z,1.50
2023-01-23T18:33:29.163Z,1.50
2023-01-23T18:36:30.798Z,1.60
2023-01-23T18:39:25.205Z,1.60
2023-01-23T18:42:03.991Z,1.60
2023-01-23T18:44:51.007Z,1.60
2023-01-23T18:47:19.924Z,1.90
2023-01-23T18:49:48.675Z,1.60
2023-01-23T18:52:22.900Z,1.60
2023-01-23T18:54:57.734Z,2.10
2023-01-23T18:57:40.732Z,1.50
2023-01-23T19:00:19.920Z,1.50
2023-01-23T19:02:53.269Z,1.50
2023-01-23T19:05:30.073Z,1.50
2023-01-23T19:07:59.785Z,1.40
2023-01-23T19:10:32.579Z,1.40
2023-01-23T19:13:10.230Z,1.30
2023-01-23T19:15:47.068Z,1.20
2023-01-23T19:18:40.701Z,1.20
2023-01-23T19:21:15.840Z,1.10
2023-01-23T19:23:50.135Z,1.10
2023-01-23T19:26:19.507Z,1.20
2023-01-23T19:28:48.254Z,1.10
2023-01-23T19:31:22.999Z,1.10
2023-01-23T19:33:51.540Z,1.10
2023-01-23T19:36:20.121Z,1.10
2023-01-23T19:38:48.665Z,1.10
2023-01-23T19:41:22.168Z,1.20
2023-01-23T19:43:51.397Z,1.20
2023-01-23T19:46:21.639Z,1.20
2023-01-23T19:48:49.916Z,1.20
2023-01-23T19:51:19.984Z,1.80
2023-01-23T19:53:48.341Z,1.30
2023-01-23T19:56:18.157Z,1.20
2023-01-23T19:58:46.801Z,1.40
2023-01-23T20:01:24.202Z,1.20
2023-01-23T20:03:52.442Z,1.20
2023-01-23T20:06:20.575Z,1.20
2023-01-23T20:08:48.670Z,1.10
2023-01-23T20:11:17.619Z,1.10
2023-01-23T20:13:45.674Z,1.10
2023-01-23T20:16:18.487Z,1.10
2023-01-23T20:18:49.362Z,1.20
2023-01-23T20:21:19.331Z,1.20
2023-01-23T20:23:48.504Z,1.20
2023-01-23T20:26:18.348Z,1.20
2023-01-23T20:28:49.641Z,1.20
2023-01-23T20:31:18.057Z,1.20
2023-01-23T20:33:47.784Z,1.20
2023-01-23T20:36:16.195Z,1.20
2023-01-23T20:38:44.555Z,1.20
2023-01-23T20:41:16.378Z,1.30
2023-01-23T20:43:44.888Z,1.30
2023-01-23T20:46:14.783Z,1.30
2023-01-23T20:48:44.864Z,1.30
2023-01-23T20:51:16.045Z,1.30
2023-01-23T20:53:43.773Z,1.30
2023-01-23T20:56:13.887Z,1.30
2023-01-23T20:59:00.833Z,1.30
2023-01-23T21:01:31.016Z,1.40
2023-01-23T21:03:59.054Z,1.40
2023-01-23T21:06:28.393Z,1.40
2023-01-23T21:08:58.384Z,1.40
2023-01-23T21:11:26.525Z,1.50
2023-01-23T21:13:54.643Z,1.40
2023-01-23T21:16:22.683Z,1.40
2023-01-23T21:18:51.062Z,1.40
2023-01-23T21:21:21.455Z,1.40
2023-01-23T21:23:51.774Z,1.40
2023-01-23T21:26:22.787Z,1.40
2023-01-23T21:28:52.857Z,1.40
2023-01-23T21:31:23.295Z,1.50
2023-01-23T21:33:52.314Z,1.50
2023-01-23T21:36:23.034Z,1.50
2023-01-23T21:38:54.212Z,1.50
2023-01-23T21:41:22.527Z,1.50
2023-01-23T21:43:50.757Z,1.50
2023-01-23T21:46:18.948Z,1.50
2023-01-23T21:48:47.181Z,1.80
2023-01-23T21:51:17.011Z,1.50
2023-01-23T21:53:46.606Z,1.50
2023-01-23T21:56:18.220Z,1.50
2023-01-23T21:58:47.098Z,1.60
2023-01-23T22:01:37.648Z,1.60
2023-01-23T22:04:09.079Z,1.60
2023-01-23T22:06:38.961Z,1.60
2023-01-23T22:09:08.949Z,1.60
2023-01-23T22:11:39.548Z,1.60
2023-01-23T22:14:09.145Z,1.60
2023-01-23T22:16:47.928Z,1.60
2023-01-23T22:19:17.437Z,1.60
2023-01-23T22:21:46.685Z,1.60
2023-01-23T22:24:15.510Z,1.60
2023-01-23T22:26:46.128Z,1.60
2023-01-23T22:29:15.994Z,1.60
2023-01-23T22:31:44.728Z,1.60
2023-01-23T22:34:12.937Z,1.60
2023-01-23T22:36:41.263Z,1.60
2023-01-23T22:39:09.342Z,1.60
2023-01-23T22:41:37.408Z,1.70
2023-01-23T22:44:06.813Z,1.70
2023-01-23T22:46:37.010Z,2.00
2023-01-23T22:49:05.163Z,1.70
2023-01-23T22:51:33.288Z,1.60
2023-01-23T22:54:01.404Z,1.70
2023-01-23T22:56:29.943Z,1.70
2023-01-23T22:58:58.360Z,1.70
2023-01-23T23:01:28.189Z,1.70
2023-01-23T23:03:57.676Z,1.70
2023-01-23T23:06:26.120Z,1.70
2023-01-23T23:08:54.138Z,1.70
2023-01-23T23:11:23.634Z,1.70
2023-01-23T23:13:52.408Z,1.70
2023-01-23T23:16:22.721Z,1.70
2023-01-23T23:18:54.313Z,1.70
2023-01-23T23:21:24.110Z,1.70
2023-01-23T23:23:52.281Z,1.70
2023-01-23T23:26:20.910Z,1.70
2023-01-23T23:28:48.920Z,2.00
2023-01-23T23:31:17.194Z,1.70
2023-01-23T23:33:45.519Z,1.70
2023-01-23T23:36:14.989Z,1.70
2023-01-23T23:38:43.113Z,1.70
2023-01-23T23:41:14.647Z,1.70
2023-01-23T23:43:42.667Z,1.70
2023-01-23T23:46:11.417Z,1.80
2023-01-23T23:48:39.668Z,1.70
2023-01-23T23:51:09.892Z,1.70
2023-01-23T23:53:39.562Z,1.70
2023-01-23T23:56:08.693Z,1.70
2023-01-23T23:58:37.573Z,1.70
